sensor_id;sensor_type;location;lat;lon;timestamp;P1;durP1;ratioP1;P2;durP2;ratioP2
56114;SDS011;41988;53.020;6.576;2023-12-28T00:00:51;5.90;;;3.13;;
56114;SDS011;41988;53.020;6.576;2023-12-28T00:03:36;8.30;;;2.90;;
56114;SDS011;41988;53.020;6.576;2023-12-28T00:06:20;6.82;;;3.20;;
56114;SDS011;41988;53.020;6.576;2023-12-28T00:09:05;7.93;;;3.22;;
56114;SDS011;41988;53.020;6.576;2023-12-28T00:11:49;5.60;;;3.00;;
56114;SDS011;41988;53.020;6.576;2023-12-28T00:14:34;5.78;;;3.30;;
56114;SDS011;41988;53.020;6.576;2023-12-28T00:17:18;7.55;;;3.63;;
56114;SDS011;41988;53.020;6.576;2023-12-28T00:20:03;7.75;;;3.63;;
56114;SDS011;41988;53.020;6.576;2023-12-28T00:22:47;5.63;;;3.30;;
56114;SDS011;41988;53.020;6.576;2023-12-28T00:25:32;4.57;;;3.42;;
56114;SDS011;41988;53.020;6.576;2023-12-28T00:28:17;6.32;;;3.53;;
56114;SDS011;41988;53.020;6.576;2023-12-28T00:31:01;6.03;;;3.80;;
56114;SDS011;41988;53.020;6.576;2023-12-28T00:33:46;7.18;;;3.50;;
56114;SDS011;41988;53.020;6.576;2023-12-28T00:36:30;5.90;;;3.60;;
56114;SDS011;41988;53.020;6.576;2023-12-28T00:39:15;7.10;;;3.50;;
56114;SDS011;41988;53.020;6.576;2023-12-28T00:41:59;8.02;;;3.53;;
56114;SDS011;41988;53.020;6.576;2023-12-28T00:44:44;7.32;;;3.58;;
56114;SDS011;41988;53.020;6.576;2023-12-28T00:47:28;7.78;;;3.55;;
56114;SDS011;41988;53.020;6.576;2023-12-28T00:50:13;5.90;;;3.80;;
56114;SDS011;41988;53.020;6.576;2023-12-28T00:53:00;6.97;;;3.63;;
56114;SDS011;41988;53.020;6.576;2023-12-28T00:55:44;6.03;;;3.03;;
56114;SDS011;41988;53.020;6.576;2023-12-28T00:58:29;7.10;;;3.78;;
56114;SDS011;41988;53.020;6.576;2023-12-28T01:01:13;5.78;;;3.35;;
56114;SDS011;41988;53.020;6.576;2023-12-28T01:03:58;11.25;;;5.05;;
56114;SDS011;41988;53.020;6.576;2023-12-28T01:06:42;8.13;;;3.30;;
56114;SDS011;41988;53.020;6.576;2023-12-28T01:09:30;13.25;;;4.05;;
56114;SDS011;41988;53.020;6.576;2023-12-28T01:12:16;7.28;;;3.75;;
56114;SDS011;41988;53.020;6.576;2023-12-28T01:15:00;7.47;;;3.70;;
56114;SDS011;41988;53.020;6.576;2023-12-28T01:17:45;9.52;;;3.75;;
56114;SDS011;41988;53.020;6.576;2023-12-28T01:20:30;10.40;;;3.67;;
56114;SDS011;41988;53.020;6.576;2023-12-28T01:23:14;8.80;;;3.72;;
56114;SDS011;41988;53.020;6.576;2023-12-28T01:25:59;6.57;;;3.45;;
56114;SDS011;41988;53.020;6.576;2023-12-28T01:28:44;8.10;;;3.67;;
56114;SDS011;41988;53.020;6.576;2023-12-28T01:31:28;7.68;;;3.28;;
56114;SDS011;41988;53.020;6.576;2023-12-28T01:34:13;8.25;;;3.50;;
56114;SDS011;41988;53.020;6.576;2023-12-28T01:36:57;10.25;;;3.55;;
56114;SDS011;41988;53.020;6.576;2023-12-28T01:39:42;10.60;;;3.60;;
56114;SDS011;41988;53.020;6.576;2023-12-28T01:42:27;7.90;;;3.53;;
56114;SDS011;41988;53.020;6.576;2023-12-28T01:45:14;9.50;;;3.60;;
56114;SDS011;41988;53.020;6.576;2023-12-28T01:47:58;8.07;;;3.10;;
56114;SDS011;41988;53.020;6.576;2023-12-28T01:50:44;11.77;;;4.35;;
56114;SDS011;41988;53.020;6.576;2023-12-28T01:53:28;12.13;;;3.75;;
56114;SDS011;41988;53.020;6.576;2023-12-28T01:56:14;7.80;;;3.53;;
56114;SDS011;41988;53.020;6.576;2023-12-28T01:58:59;7.47;;;3.30;;
56114;SDS011;41988;53.020;6.576;2023-12-28T02:01:44;8.45;;;3.80;;
56114;SDS011;41988;53.020;6.576;2023-12-28T02:04:29;14.15;;;4.07;;
56114;SDS011;41988;53.020;6.576;2023-12-28T02:07:14;11.20;;;3.05;;
56114;SDS011;41988;53.020;6.576;2023-12-28T02:10:00;10.73;;;2.88;;
56114;SDS011;41988;53.020;6.576;2023-12-28T02:12:45;10.73;;;3.35;;
56114;SDS011;41988;53.020;6.576;2023-12-28T02:15:30;9.65;;;3.97;;
56114;SDS011;41988;53.020;6.576;2023-12-28T02:18:20;10.57;;;3.42;;
56114;SDS011;41988;53.020;6.576;2023-12-28T02:21:06;10.75;;;3.35;;
56114;SDS011;41988;53.020;6.576;2023-12-28T02:23:50;12.10;;;2.85;;
56114;SDS011;41988;53.020;6.576;2023-12-28T02:26:35;10.60;;;3.42;;
56114;SDS011;41988;53.020;6.576;2023-12-28T02:29:19;12.48;;;3.55;;
56114;SDS011;41988;53.020;6.576;2023-12-28T02:32:04;16.70;;;4.68;;
56114;SDS011;41988;53.020;6.576;2023-12-28T02:34:51;11.13;;;3.20;;
56114;SDS011;41988;53.020;6.576;2023-12-28T02:37:37;9.75;;;2.97;;
56114;SDS011;41988;53.020;6.576;2023-12-28T02:40:22;9.07;;;3.30;;
56114;SDS011;41988;53.020;6.576;2023-12-28T02:43:08;11.10;;;3.45;;
56114;SDS011;41988;53.020;6.576;2023-12-28T02:45:53;7.40;;;3.20;;
56114;SDS011;41988;53.020;6.576;2023-12-28T02:48:38;8.18;;;3.03;;
56114;SDS011;41988;53.020;6.576;2023-12-28T02:51:22;11.85;;;3.05;;
56114;SDS011;41988;53.020;6.576;2023-12-28T02:54:07;11.73;;;3.03;;
56114;SDS011;41988;53.020;6.576;2023-12-28T02:56:51;10.75;;;3.50;;
56114;SDS011;41988;53.020;6.576;2023-12-28T02:59:36;10.23;;;2.80;;
56114;SDS011;41988;53.020;6.576;2023-12-28T03:02:20;13.35;;;3.08;;
56114;SDS011;41988;53.020;6.576;2023-12-28T03:05:06;10.80;;;2.60;;
56114;SDS011;41988;53.020;6.576;2023-12-28T03:07:52;9.65;;;2.83;;
56114;SDS011;41988;53.020;6.576;2023-12-28T03:10:39;7.60;;;2.70;;
56114;SDS011;41988;53.020;6.576;2023-12-28T03:13:30;13.43;;;3.35;;
56114;SDS011;41988;53.020;6.576;2023-12-28T03:16:16;9.25;;;2.63;;
56114;SDS011;41988;53.020;6.576;2023-12-28T03:19:01;12.48;;;2.65;;
56114;SDS011;41988;53.020;6.576;2023-12-28T03:21:58;7.82;;;2.40;;
56114;SDS011;41988;53.020;6.576;2023-12-28T03:24:49;9.30;;;3.28;;
56114;SDS011;41988;53.020;6.576;2023-12-28T03:27:34;7.93;;;2.70;;
56114;SDS011;41988;53.020;6.576;2023-12-28T03:30:19;12.10;;;2.78;;
56114;SDS011;41988;53.020;6.576;2023-12-28T03:33:05;9.55;;;2.80;;
56114;SDS011;41988;53.020;6.576;2023-12-28T03:35:50;8.95;;;2.65;;
56114;SDS011;41988;53.020;6.576;2023-12-28T03:38:35;18.15;;;4.88;;
56114;SDS011;41988;53.020;6.576;2023-12-28T03:41:22;11.38;;;2.78;;
56114;SDS011;41988;53.020;6.576;2023-12-28T03:44:07;10.52;;;2.83;;
56114;SDS011;41988;53.020;6.576;2023-12-28T03:46:52;10.18;;;2.55;;
56114;SDS011;41988;53.020;6.576;2023-12-28T03:49:36;8.18;;;2.50;;
56114;SDS011;41988;53.020;6.576;2023-12-28T03:52:21;9.75;;;3.20;;
56114;SDS011;41988;53.020;6.576;2023-12-28T03:55:07;10.05;;;2.28;;
56114;SDS011;41988;53.020;6.576;2023-12-28T03:57:52;11.20;;;2.53;;
56114;SDS011;41988;53.020;6.576;2023-12-28T04:00:36;12.13;;;2.28;;
56114;SDS011;41988;53.020;6.576;2023-12-28T04:03:21;10.13;;;2.20;;
56114;SDS011;41988;53.020;6.576;2023-12-28T04:06:06;9.50;;;2.78;;
56114;SDS011;41988;53.020;6.576;2023-12-28T04:08:51;14.95;;;4.07;;
56114;SDS011;41988;53.020;6.576;2023-12-28T04:11:36;8.43;;;2.45;;
56114;SDS011;41988;53.020;6.576;2023-12-28T04:14:22;7.95;;;2.65;;
56114;SDS011;41988;53.020;6.576;2023-12-28T04:17:07;9.13;;;2.50;;
56114;SDS011;41988;53.020;6.576;2023-12-28T04:19:52;10.45;;;3.40;;
56114;SDS011;41988;53.020;6.576;2023-12-28T04:22:37;7.15;;;2.30;;
56114;SDS011;41988;53.020;6.576;2023-12-28T04:25:22;6.78;;;2.63;;
56114;SDS011;41988;53.020;6.576;2023-12-28T04:28:07;12.93;;;2.40;;
56114;SDS011;41988;53.020;6.576;2023-12-28T04:30:51;13.65;;;2.88;;
56114;SDS011;41988;53.020;6.576;2023-12-28T04:33:36;10.77;;;2.90;;
56114;SDS011;41988;53.020;6.576;2023-12-28T04:36:20;10.07;;;2.35;;
56114;SDS011;41988;53.020;6.576;2023-12-28T04:39:05;8.38;;;2.30;;
56114;SDS011;41988;53.020;6.576;2023-12-28T04:41:49;16.27;;;2.90;;
56114;SDS011;41988;53.020;6.576;2023-12-28T04:44:37;12.15;;;2.10;;
56114;SDS011;41988;53.020;6.576;2023-12-28T04:47:22;13.60;;;3.13;;
56114;SDS011;41988;53.020;6.576;2023-12-28T04:50:07;11.88;;;3.17;;
56114;SDS011;41988;53.020;6.576;2023-12-28T04:52:52;11.05;;;3.22;;
56114;SDS011;41988;53.020;6.576;2023-12-28T04:55:37;15.85;;;2.47;;
56114;SDS011;41988;53.020;6.576;2023-12-28T04:58:22;10.23;;;2.78;;
56114;SDS011;41988;53.020;6.576;2023-12-28T05:01:06;18.52;;;2.92;;
56114;SDS011;41988;53.020;6.576;2023-12-28T05:03:51;15.02;;;2.92;;
56114;SDS011;41988;53.020;6.576;2023-12-28T05:06:36;10.10;;;2.60;;
56114;SDS011;41988;53.020;6.576;2023-12-28T05:09:21;16.48;;;3.10;;
56114;SDS011;41988;53.020;6.576;2023-12-28T05:12:05;8.13;;;2.35;;
56114;SDS011;41988;53.020;6.576;2023-12-28T05:14:56;12.45;;;2.70;;
56114;SDS011;41988;53.020;6.576;2023-12-28T05:17:41;12.55;;;2.67;;
56114;SDS011;41988;53.020;6.576;2023-12-28T05:20:27;14.50;;;2.50;;
56114;SDS011;41988;53.020;6.576;2023-12-28T05:23:11;12.02;;;2.40;;
56114;SDS011;41988;53.020;6.576;2023-12-28T05:25:55;11.27;;;2.65;;
56114;SDS011;41988;53.020;6.576;2023-12-28T05:28:40;13.32;;;2.70;;
56114;SDS011;41988;53.020;6.576;2023-12-28T05:31:24;11.98;;;2.45;;
56114;SDS011;41988;53.020;6.576;2023-12-28T05:34:09;12.40;;;2.30;;
56114;SDS011;41988;53.020;6.576;2023-12-28T05:36:55;11.95;;;3.05;;
56114;SDS011;41988;53.020;6.576;2023-12-28T05:39:40;13.52;;;2.75;;
56114;SDS011;41988;53.020;6.576;2023-12-28T05:42:24;6.45;;;2.47;;
56114;SDS011;41988;53.020;6.576;2023-12-28T05:45:09;15.23;;;3.33;;
56114;SDS011;41988;53.020;6.576;2023-12-28T05:47:54;16.42;;;3.20;;
56114;SDS011;41988;53.020;6.576;2023-12-28T05:50:38;14.70;;;3.30;;
56114;SDS011;41988;53.020;6.576;2023-12-28T05:53:26;10.32;;;2.47;;
56114;SDS011;41988;53.020;6.576;2023-12-28T05:56:13;15.98;;;3.15;;
56114;SDS011;41988;53.020;6.576;2023-12-28T05:58:57;14.75;;;3.08;;
56114;SDS011;41988;53.020;6.576;2023-12-28T06:01:42;12.85;;;2.60;;
56114;SDS011;41988;53.020;6.576;2023-12-28T06:04:27;16.45;;;2.45;;
56114;SDS011;41988;53.020;6.576;2023-12-28T06:07:12;15.45;;;3.22;;
56114;SDS011;41988;53.020;6.576;2023-12-28T06:09:56;10.10;;;2.35;;
56114;SDS011;41988;53.020;6.576;2023-12-28T06:12:41;18.42;;;2.78;;
56114;SDS011;41988;53.020;6.576;2023-12-28T06:15:25;14.80;;;2.40;;
56114;SDS011;41988;53.020;6.576;2023-12-28T06:18:10;10.60;;;2.80;;
56114;SDS011;41988;53.020;6.576;2023-12-28T06:20:54;15.10;;;2.97;;
56114;SDS011;41988;53.020;6.576;2023-12-28T06:23:39;7.40;;;1.85;;
56114;SDS011;41988;53.020;6.576;2023-12-28T06:26:23;17.48;;;3.28;;
56114;SDS011;41988;53.020;6.576;2023-12-28T06:29:10;16.60;;;4.10;;
56114;SDS011;41988;53.020;6.576;2023-12-28T06:31:55;19.00;;;3.03;;
56114;SDS011;41988;53.020;6.576;2023-12-28T06:34:39;9.70;;;2.30;;
56114;SDS011;41988;53.020;6.576;2023-12-28T06:37:24;12.10;;;2.97;;
56114;SDS011;41988;53.020;6.576;2023-12-28T06:40:10;15.80;;;2.85;;
56114;SDS011;41988;53.020;6.576;2023-12-28T06:42:54;19.38;;;3.67;;
56114;SDS011;41988;53.020;6.576;2023-12-28T06:45:39;16.33;;;2.95;;
56114;SDS011;41988;53.020;6.576;2023-12-28T06:48:24;15.05;;;2.90;;
56114;SDS011;41988;53.020;6.576;2023-12-28T06:51:15;14.60;;;2.33;;
56114;SDS011;41988;53.020;6.576;2023-12-28T06:54:00;13.55;;;2.67;;
56114;SDS011;41988;53.020;6.576;2023-12-28T06:56:45;15.50;;;3.58;;
56114;SDS011;41988;53.020;6.576;2023-12-28T06:59:29;15.52;;;2.33;;
56114;SDS011;41988;53.020;6.576;2023-12-28T07:02:14;16.30;;;3.08;;
56114;SDS011;41988;53.020;6.576;2023-12-28T07:04:58;11.52;;;2.63;;
56114;SDS011;41988;53.020;6.576;2023-12-28T07:07:43;7.93;;;2.30;;
56114;SDS011;41988;53.020;6.576;2023-12-28T07:10:27;10.55;;;2.72;;
56114;SDS011;41988;53.020;6.576;2023-12-28T07:13:12;24.27;;;3.08;;
56114;SDS011;41988;53.020;6.576;2023-12-28T07:16:15;12.73;;;2.70;;
56114;SDS011;41988;53.020;6.576;2023-12-28T07:19:29;16.15;;;2.95;;
56114;SDS011;41988;53.020;6.576;2023-12-28T07:22:14;11.80;;;2.28;;
56114;SDS011;41988;53.020;6.576;2023-12-28T07:25:00;14.88;;;3.20;;
56114;SDS011;41988;53.020;6.576;2023-12-28T07:27:44;13.45;;;2.58;;
56114;SDS011;41988;53.020;6.576;2023-12-28T07:30:37;19.92;;;3.33;;
56114;SDS011;41988;53.020;6.576;2023-12-28T07:33:30;18.08;;;2.85;;
56114;SDS011;41988;53.020;6.576;2023-12-28T07:36:16;25.75;;;4.50;;
56114;SDS011;41988;53.020;6.576;2023-12-28T07:39:30;16.58;;;3.08;;
56114;SDS011;41988;53.020;6.576;2023-12-28T07:43:08;12.60;;;2.33;;
56114;SDS011;41988;53.020;6.576;2023-12-28T07:46:48;12.13;;;3.22;;
56114;SDS011;41988;53.020;6.576;2023-12-28T07:49:59;13.90;;;3.00;;
56114;SDS011;41988;53.020;6.576;2023-12-28T07:52:48;10.50;;;1.90;;
56114;SDS011;41988;53.020;6.576;2023-12-28T07:55:35;25.02;;;6.32;;
56114;SDS011;41988;53.020;6.576;2023-12-28T07:58:53;22.60;;;3.55;;
56114;SDS011;41988;53.020;6.576;2023-12-28T08:01:40;14.73;;;3.83;;
56114;SDS011;41988;53.020;6.576;2023-12-28T08:11:13;21.40;;;3.35;;
56114;SDS011;41988;53.020;6.576;2023-12-28T08:13:58;19.05;;;3.90;;
56114;SDS011;41988;53.020;6.576;2023-12-28T08:16:42;16.42;;;2.67;;
56114;SDS011;41988;53.020;6.576;2023-12-28T08:19:27;23.55;;;4.40;;
56114;SDS011;41988;53.020;6.576;2023-12-28T08:25:14;30.90;;;4.60;;
56114;SDS011;41988;53.020;6.576;2023-12-28T08:27:59;23.52;;;4.20;;
56114;SDS011;41988;53.020;6.576;2023-12-28T08:31:06;18.55;;;3.95;;
56114;SDS011;41988;53.020;6.576;2023-12-28T08:37:24;17.00;;;4.13;;
56114;SDS011;41988;53.020;6.576;2023-12-28T08:40:09;21.15;;;3.42;;
56114;SDS011;41988;53.020;6.576;2023-12-28T08:42:56;23.60;;;3.92;;
56114;SDS011;41988;53.020;6.576;2023-12-28T08:46:38;20.38;;;4.25;;
56114;SDS011;41988;53.020;6.576;2023-12-28T08:49:42;23.98;;;3.95;;
56114;SDS011;41988;53.020;6.576;2023-12-28T08:52:48;29.70;;;4.60;;
56114;SDS011;41988;53.020;6.576;2023-12-28T08:55:39;29.25;;;3.65;;
56114;SDS011;41988;53.020;6.576;2023-12-28T08:59:10;20.13;;;3.58;;
56114;SDS011;41988;53.020;6.576;2023-12-28T09:02:49;21.13;;;4.85;;
56114;SDS011;41988;53.020;6.576;2023-12-28T09:09:10;22.30;;;3.80;;
56114;SDS011;41988;53.020;6.576;2023-12-28T09:12:22;18.15;;;3.20;;
56114;SDS011;41988;53.020;6.576;2023-12-28T09:15:26;19.55;;;3.80;;
56114;SDS011;41988;53.020;6.576;2023-12-28T09:18:18;21.77;;;3.70;;
56114;SDS011;41988;53.020;6.576;2023-12-28T09:21:30;25.27;;;4.05;;
56114;SDS011;41988;53.020;6.576;2023-12-28T09:24:31;26.95;;;4.78;;
56114;SDS011;41988;53.020;6.576;2023-12-28T09:27:52;16.58;;;2.60;;
56114;SDS011;41988;53.020;6.576;2023-12-28T09:30:37;17.65;;;3.20;;
56114;SDS011;41988;53.020;6.576;2023-12-28T09:36:38;22.67;;;5.03;;
56114;SDS011;41988;53.020;6.576;2023-12-28T09:40:09;21.35;;;2.95;;
56114;SDS011;41988;53.020;6.576;2023-12-28T09:43:21;16.60;;;3.65;;
56114;SDS011;41988;53.020;6.576;2023-12-28T09:50:10;17.92;;;3.22;;
56114;SDS011;41988;53.020;6.576;2023-12-28T09:53:37;19.52;;;3.28;;
56114;SDS011;41988;53.020;6.576;2023-12-28T09:56:40;19.67;;;3.75;;
56114;SDS011;41988;53.020;6.576;2023-12-28T10:00:12;16.88;;;3.70;;
56114;SDS011;41988;53.020;6.576;2023-12-28T10:03:15;17.58;;;2.90;;
56114;SDS011;41988;53.020;6.576;2023-12-28T10:09:15;19.92;;;3.50;;
56114;SDS011;41988;53.020;6.576;2023-12-28T10:12:02;23.25;;;4.35;;
56114;SDS011;41988;53.020;6.576;2023-12-28T10:15:09;19.65;;;3.60;;
56114;SDS011;41988;53.020;6.576;2023-12-28T10:18:17;15.73;;;3.40;;
56114;SDS011;41988;53.020;6.576;2023-12-28T10:21:31;22.57;;;3.63;;
56114;SDS011;41988;53.020;6.576;2023-12-28T10:24:19;21.63;;;4.47;;
56114;SDS011;41988;53.020;6.576;2023-12-28T10:27:30;28.65;;;3.80;;
56114;SDS011;41988;53.020;6.576;2023-12-28T10:30:17;17.88;;;3.20;;
56114;SDS011;41988;53.020;6.576;2023-12-28T10:36:16;21.38;;;3.72;;
56114;SDS011;41988;53.020;6.576;2023-12-28T10:39:29;24.00;;;3.55;;
56114;SDS011;41988;53.020;6.576;2023-12-28T10:45:25;22.38;;;3.78;;
56114;SDS011;41988;53.020;6.576;2023-12-28T10:48:10;15.27;;;2.83;;
56114;SDS011;41988;53.020;6.576;2023-12-28T10:51:20;24.40;;;4.82;;
56114;SDS011;41988;53.020;6.576;2023-12-28T10:55:28;20.85;;;3.67;;
56114;SDS011;41988;53.020;6.576;2023-12-28T11:01:21;20.85;;;3.42;;
56114;SDS011;41988;53.020;6.576;2023-12-28T11:07:49;23.33;;;4.25;;
56114;SDS011;41988;53.020;6.576;2023-12-28T11:11:12;15.95;;;3.03;;
56114;SDS011;41988;53.020;6.576;2023-12-28T11:14:20;20.45;;;4.78;;
56114;SDS011;41988;53.020;6.576;2023-12-28T11:17:06;23.45;;;4.13;;
56114;SDS011;41988;53.020;6.576;2023-12-28T11:19:53;11.85;;;3.70;;
56114;SDS011;41988;53.020;6.576;2023-12-28T11:22:40;32.33;;;4.47;;
56114;SDS011;41988;53.020;6.576;2023-12-28T11:25:30;24.30;;;4.10;;
56114;SDS011;41988;53.020;6.576;2023-12-28T11:28:40;16.98;;;4.07;;
56114;SDS011;41988;53.020;6.576;2023-12-28T11:34:44;24.80;;;3.92;;
56114;SDS011;41988;53.020;6.576;2023-12-28T11:37:38;17.35;;;3.05;;
56114;SDS011;41988;53.020;6.576;2023-12-28T11:41:03;21.77;;;3.72;;
56114;SDS011;41988;53.020;6.576;2023-12-28T11:44:26;20.23;;;4.05;;
56114;SDS011;41988;53.020;6.576;2023-12-28T11:48:02;20.92;;;4.40;;
56114;SDS011;41988;53.020;6.576;2023-12-28T11:54:26;16.13;;;3.35;;
56114;SDS011;41988;53.020;6.576;2023-12-28T11:57:20;17.50;;;3.08;;
56114;SDS011;41988;53.020;6.576;2023-12-28T12:00:09;16.20;;;2.55;;
56114;SDS011;41988;53.020;6.576;2023-12-28T12:03:17;17.85;;;3.03;;
56114;SDS011;41988;53.020;6.576;2023-12-28T12:06:11;27.50;;;4.57;;
56114;SDS011;41988;53.020;6.576;2023-12-28T12:09:10;20.98;;;4.45;;
56114;SDS011;41988;53.020;6.576;2023-12-28T12:15:37;24.77;;;4.75;;
56114;SDS011;41988;53.020;6.576;2023-12-28T12:18:27;24.80;;;3.55;;
56114;SDS011;41988;53.020;6.576;2023-12-28T12:21:33;18.65;;;4.03;;
56114;SDS011;41988;53.020;6.576;2023-12-28T12:24:47;21.92;;;3.47;;
56114;SDS011;41988;53.020;6.576;2023-12-28T12:31:15;20.08;;;4.13;;
56114;SDS011;41988;53.020;6.576;2023-12-28T12:34:01;21.35;;;3.45;;
56114;SDS011;41988;53.020;6.576;2023-12-28T12:37:04;22.90;;;4.15;;
56114;SDS011;41988;53.020;6.576;2023-12-28T12:39:55;17.13;;;4.57;;
56114;SDS011;41988;53.020;6.576;2023-12-28T12:43:10;35.65;;;5.85;;
56114;SDS011;41988;53.020;6.576;2023-12-28T12:46:21;21.35;;;3.33;;
56114;SDS011;41988;53.020;6.576;2023-12-28T12:49:43;17.73;;;3.17;;
56114;SDS011;41988;53.020;6.576;2023-12-28T12:56:38;19.88;;;3.53;;
56114;SDS011;41988;53.020;6.576;2023-12-28T12:59:47;21.27;;;3.85;;
56114;SDS011;41988;53.020;6.576;2023-12-28T13:02:40;17.85;;;2.90;;
56114;SDS011;41988;53.020;6.576;2023-12-28T13:05:28;16.55;;;4.25;;
56114;SDS011;41988;53.020;6.576;2023-12-28T13:08:13;16.50;;;3.53;;
56114;SDS011;41988;53.020;6.576;2023-12-28T13:11:13;26.35;;;4.20;;
56114;SDS011;41988;53.020;6.576;2023-12-28T13:14:16;18.45;;;3.28;;
56114;SDS011;41988;53.020;6.576;2023-12-28T13:17:28;20.75;;;3.70;;
56114;SDS011;41988;53.020;6.576;2023-12-28T13:20:20;22.95;;;4.43;;
56114;SDS011;41988;53.020;6.576;2023-12-28T13:23:24;24.13;;;5.30;;
56114;SDS011;41988;53.020;6.576;2023-12-28T13:26:36;17.70;;;4.50;;
56114;SDS011;41988;53.020;6.576;2023-12-28T13:29:36;11.68;;;3.17;;
56114;SDS011;41988;53.020;6.576;2023-12-28T13:32:21;20.50;;;3.85;;
56114;SDS011;41988;53.020;6.576;2023-12-28T13:35:13;23.83;;;3.95;;
56114;SDS011;41988;53.020;6.576;2023-12-28T13:38:33;24.25;;;3.65;;
56114;SDS011;41988;53.020;6.576;2023-12-28T13:41:35;15.23;;;2.70;;
56114;SDS011;41988;53.020;6.576;2023-12-28T13:44:36;22.45;;;4.32;;
56114;SDS011;41988;53.020;6.576;2023-12-28T13:47:31;20.17;;;3.63;;
56114;SDS011;41988;53.020;6.576;2023-12-28T13:50:23;21.98;;;3.63;;
56114;SDS011;41988;53.020;6.576;2023-12-28T13:53:30;21.98;;;4.10;;
56114;SDS011;41988;53.020;6.576;2023-12-28T13:56:36;24.90;;;4.00;;
56114;SDS011;41988;53.020;6.576;2023-12-28T13:59:22;27.17;;;4.07;;
56114;SDS011;41988;53.020;6.576;2023-12-28T14:02:07;26.52;;;4.50;;
56114;SDS011;41988;53.020;6.576;2023-12-28T14:05:16;17.80;;;3.60;;
56114;SDS011;41988;53.020;6.576;2023-12-28T14:11:05;16.67;;;3.22;;
56114;SDS011;41988;53.020;6.576;2023-12-28T14:14:04;20.93;;;3.97;;
56114;SDS011;41988;53.020;6.576;2023-12-28T14:20:44;24.27;;;4.53;;
56114;SDS011;41988;53.020;6.576;2023-12-28T14:23:57;26.13;;;4.20;;
56114;SDS011;41988;53.020;6.576;2023-12-28T14:26:53;21.65;;;3.92;;
56114;SDS011;41988;53.020;6.576;2023-12-28T14:29:56;18.45;;;3.55;;
56114;SDS011;41988;53.020;6.576;2023-12-28T14:32:48;19.48;;;4.40;;
56114;SDS011;41988;53.020;6.576;2023-12-28T14:35:36;30.60;;;4.00;;
56114;SDS011;41988;53.020;6.576;2023-12-28T14:38:28;16.80;;;3.53;;
56114;SDS011;41988;53.020;6.576;2023-12-28T14:41:28;22.23;;;4.13;;
56114;SDS011;41988;53.020;6.576;2023-12-28T14:44:14;22.50;;;3.50;;
56114;SDS011;41988;53.020;6.576;2023-12-28T14:46:59;23.33;;;3.58;;
56114;SDS011;41988;53.020;6.576;2023-12-28T14:49:44;20.00;;;3.83;;
56114;SDS011;41988;53.020;6.576;2023-12-28T14:52:28;20.80;;;3.35;;
56114;SDS011;41988;53.020;6.576;2023-12-28T14:55:13;18.80;;;3.65;;
56114;SDS011;41988;53.020;6.576;2023-12-28T14:57:58;28.75;;;5.13;;
56114;SDS011;41988;53.020;6.576;2023-12-28T15:00:43;21.15;;;3.70;;
56114;SDS011;41988;53.020;6.576;2023-12-28T15:03:28;21.38;;;3.80;;
56114;SDS011;41988;53.020;6.576;2023-12-28T15:06:35;25.75;;;4.20;;
56114;SDS011;41988;53.020;6.576;2023-12-28T15:09:20;12.73;;;3.40;;
56114;SDS011;41988;53.020;6.576;2023-12-28T15:12:06;19.80;;;4.15;;
56114;SDS011;41988;53.020;6.576;2023-12-28T15:17:57;23.42;;;4.10;;
56114;SDS011;41988;53.020;6.576;2023-12-28T15:20:52;14.27;;;3.63;;
56114;SDS011;41988;53.020;6.576;2023-12-28T15:23:56;24.23;;;3.80;;
56114;SDS011;41988;53.020;6.576;2023-12-28T15:26:44;25.80;;;4.95;;
56114;SDS011;41988;53.020;6.576;2023-12-28T15:29:30;15.82;;;4.82;;
56114;SDS011;41988;53.020;6.576;2023-12-28T15:32:15;22.08;;;3.45;;
56114;SDS011;41988;53.020;6.576;2023-12-28T15:35:00;20.63;;;3.97;;
56114;SDS011;41988;53.020;6.576;2023-12-28T15:37:46;13.02;;;2.30;;
56114;SDS011;41988;53.020;6.576;2023-12-28T15:40:40;17.67;;;2.70;;
56114;SDS011;41988;53.020;6.576;2023-12-28T15:43:35;15.80;;;2.40;;
56114;SDS011;41988;53.020;6.576;2023-12-28T15:46:21;16.50;;;4.00;;
56114;SDS011;41988;53.020;6.576;2023-12-28T15:49:07;28.75;;;4.10;;
56114;SDS011;41988;53.020;6.576;2023-12-28T15:51:53;24.35;;;3.42;;
56114;SDS011;41988;53.020;6.576;2023-12-28T15:54:39;14.82;;;3.50;;
56114;SDS011;41988;53.020;6.576;2023-12-28T15:57:24;23.80;;;5.55;;
56114;SDS011;41988;53.020;6.576;2023-12-28T16:00:10;17.88;;;3.95;;
56114;SDS011;41988;53.020;6.576;2023-12-28T16:03:01;18.83;;;3.85;;
56114;SDS011;41988;53.020;6.576;2023-12-28T16:06:09;24.02;;;4.28;;
56114;SDS011;41988;53.020;6.576;2023-12-28T16:08:55;19.00;;;4.38;;
56114;SDS011;41988;53.020;6.576;2023-12-28T16:14:45;22.17;;;3.45;;
56114;SDS011;41988;53.020;6.576;2023-12-28T16:17:39;19.00;;;3.35;;
56114;SDS011;41988;53.020;6.576;2023-12-28T16:20:32;15.02;;;2.78;;
56114;SDS011;41988;53.020;6.576;2023-12-28T16:23:17;19.85;;;3.40;;
56114;SDS011;41988;53.020;6.576;2023-12-28T16:26:02;18.50;;;3.75;;
56114;SDS011;41988;53.020;6.576;2023-12-28T16:28:54;19.55;;;4.38;;
56114;SDS011;41988;53.020;6.576;2023-12-28T16:31:46;19.58;;;4.05;;
56114;SDS011;41988;53.020;6.576;2023-12-28T16:34:30;13.85;;;2.97;;
56114;SDS011;41988;53.020;6.576;2023-12-28T16:37:15;20.67;;;3.00;;
56114;SDS011;41988;53.020;6.576;2023-12-28T16:39:59;19.90;;;3.42;;
56114;SDS011;41988;53.020;6.576;2023-12-28T16:42:44;18.35;;;3.08;;
56114;SDS011;41988;53.020;6.576;2023-12-28T16:45:28;15.25;;;3.33;;
56114;SDS011;41988;53.020;6.576;2023-12-28T16:48:13;27.90;;;8.90;;
56114;SDS011;41988;53.020;6.576;2023-12-28T16:50:58;15.93;;;3.63;;
56114;SDS011;41988;53.020;6.576;2023-12-28T16:53:46;14.88;;;3.42;;
56114;SDS011;41988;53.020;6.576;2023-12-28T16:56:30;18.65;;;3.25;;
56114;SDS011;41988;53.020;6.576;2023-12-28T16:59:16;21.17;;;3.75;;
56114;SDS011;41988;53.020;6.576;2023-12-28T17:02:01;22.88;;;4.45;;
56114;SDS011;41988;53.020;6.576;2023-12-28T17:04:55;14.20;;;3.53;;
56114;SDS011;41988;53.020;6.576;2023-12-28T17:07:41;13.25;;;3.70;;
56114;SDS011;41988;53.020;6.576;2023-12-28T17:10:26;21.58;;;3.65;;
56114;SDS011;41988;53.020;6.576;2023-12-28T17:13:15;22.92;;;3.67;;
56114;SDS011;41988;53.020;6.576;2023-12-28T17:16:03;18.40;;;3.90;;
56114;SDS011;41988;53.020;6.576;2023-12-28T17:18:49;17.45;;;3.60;;
56114;SDS011;41988;53.020;6.576;2023-12-28T17:21:38;20.80;;;3.92;;
56114;SDS011;41988;53.020;6.576;2023-12-28T17:24:23;21.63;;;4.65;;
56114;SDS011;41988;53.020;6.576;2023-12-28T17:27:17;21.83;;;4.90;;
56114;SDS011;41988;53.020;6.576;2023-12-28T17:30:04;21.83;;;5.03;;
56114;SDS011;41988;53.020;6.576;2023-12-28T17:32:52;17.30;;;4.13;;
56114;SDS011;41988;53.020;6.576;2023-12-28T17:35:38;21.15;;;4.05;;
56114;SDS011;41988;53.020;6.576;2023-12-28T17:38:22;17.85;;;3.10;;
56114;SDS011;41988;53.020;6.576;2023-12-28T17:41:10;22.77;;;6.88;;
56114;SDS011;41988;53.020;6.576;2023-12-28T17:43:57;14.90;;;2.92;;
56114;SDS011;41988;53.020;6.576;2023-12-28T17:46:48;15.25;;;2.70;;
56114;SDS011;41988;53.020;6.576;2023-12-28T17:49:33;23.35;;;3.72;;
56114;SDS011;41988;53.020;6.576;2023-12-28T17:52:18;20.85;;;3.50;;
56114;SDS011;41988;53.020;6.576;2023-12-28T17:55:34;21.85;;;3.97;;
56114;SDS011;41988;53.020;6.576;2023-12-28T18:02:00;23.35;;;4.43;;
56114;SDS011;41988;53.020;6.576;2023-12-28T18:05:11;16.25;;;3.15;;
56114;SDS011;41988;53.020;6.576;2023-12-28T18:07:55;16.95;;;4.22;;
56114;SDS011;41988;53.020;6.576;2023-12-28T18:10:40;14.90;;;3.00;;
56114;SDS011;41988;53.020;6.576;2023-12-28T18:13:25;20.83;;;4.07;;